DAL229 CYUL-KMIA
Flight info
| Callsign | DAL229 |
|---|---|
| Flight time | N/A |
| Altitude | 34000 |
| Route | FAWNS DCT BUGSY DCT PONCT Q437 CRPLR DCT BGBRD Q101 PRANK/N0469F360 Q101 SKARP Y313 HOAGG BNFSH3 |
| Aircraft | B739/M-SDE2E3FGHIRWXY/LB1 |
Departure
| Time | 2026-05-07 23:28 |
|---|---|
| Airport | Montreal / Pierre Elliott Trudeau International Airport (CYUL) |
Arrival
| Time | N/A |
|---|---|
| Airport | Miami International Airport (KMIA) |
| Time | Latitude | Longitude | Altitude | Speed | Heading |
|---|---|---|---|---|---|
| 2026-05-07 22:12 | 45.45577 | -73.75643 | 115 ft | 0 kts | 169° |
| 2026-05-07 23:11 | 45.45582 | -73.75644 | 111 ft | 4 kts | 169° |
| 2026-05-07 23:11 | 45.45604 | -73.75650 | 113 ft | 4 kts | 188° |
| 2026-05-07 23:11 | 45.45622 | -73.75635 | 111 ft | 4 kts | 246° |
| 2026-05-07 23:12 | 45.45628 | -73.75610 | 114 ft | 0 kts | 257° |
| 2026-05-07 23:14 | 45.45625 | -73.75636 | 114 ft | 7 kts | 263° |
| 2026-05-07 23:14 | 45.45640 | -73.75755 | 112 ft | 17 kts | 295° |
| 2026-05-07 23:14 | 45.45720 | -73.75871 | 115 ft | 16 kts | 328° |
| 2026-05-07 23:14 | 45.45823 | -73.75931 | 114 ft | 16 kts | 347° |
| 2026-05-07 23:15 | 45.45927 | -73.75959 | 112 ft | 15 kts | 352° |
| 2026-05-07 23:15 | 45.46029 | -73.75960 | 114 ft | 14 kts | 12° |
| 2026-05-07 23:15 | 45.46065 | -73.75845 | 115 ft | 14 kts | 91° |
| 2026-05-07 23:15 | 45.46060 | -73.75713 | 115 ft | 13 kts | 93° |
| 2026-05-07 23:16 | 45.46060 | -73.75586 | 115 ft | 13 kts | 88° |
| 2026-05-07 23:16 | 45.46064 | -73.75462 | 115 ft | 12 kts | 88° |
| 2026-05-07 23:16 | 45.46047 | -73.75346 | 114 ft | 13 kts | 118° |
| 2026-05-07 23:16 | 45.46007 | -73.75223 | 115 ft | 14 kts | 101° |
| 2026-05-07 23:17 | 45.45998 | -73.75083 | 115 ft | 14 kts | 95° |
| 2026-05-07 23:17 | 45.45989 | -73.74949 | 115 ft | 13 kts | 95° |
| 2026-05-07 23:17 | 45.45979 | -73.74821 | 113 ft | 13 kts | 102° |
| 2026-05-07 23:17 | 45.45964 | -73.74699 | 115 ft | 12 kts | 87° |
| 2026-05-07 23:18 | 45.45979 | -73.74578 | 113 ft | 12 kts | 80° |
| 2026-05-07 23:18 | 45.45987 | -73.74442 | 115 ft | 18 kts | 86° |
| 2026-05-07 23:18 | 45.46002 | -73.74250 | 113 ft | 20 kts | 61° |
| 2026-05-07 23:18 | 45.46097 | -73.74108 | 115 ft | 20 kts | 43° |
| 2026-05-07 23:19 | 45.46210 | -73.73962 | 113 ft | 22 kts | 42° |
| 2026-05-07 23:19 | 45.46325 | -73.73812 | 114 ft | 23 kts | 43° |
| 2026-05-07 23:19 | 45.46441 | -73.73662 | 115 ft | 22 kts | 42° |
| 2026-05-07 23:19 | 45.46554 | -73.73513 | 112 ft | 23 kts | 44° |
| 2026-05-07 23:20 | 45.46676 | -73.73353 | 113 ft | 23 kts | 42° |
| 2026-05-07 23:20 | 45.46793 | -73.73201 | 115 ft | 23 kts | 42° |
| 2026-05-07 23:20 | 45.46906 | -73.73049 | 115 ft | 22 kts | 43° |
| 2026-05-07 23:20 | 45.47017 | -73.72906 | 114 ft | 21 kts | 42° |
| 2026-05-07 23:21 | 45.47125 | -73.72765 | 112 ft | 21 kts | 42° |
| 2026-05-07 23:21 | 45.47228 | -73.72630 | 113 ft | 18 kts | 42° |
| 2026-05-07 23:21 | 45.47303 | -73.72531 | 114 ft | 14 kts | 43° |
| 2026-05-07 23:21 | 45.47371 | -73.72443 | 115 ft | 13 kts | 41° |
| 2026-05-07 23:22 | 45.47447 | -73.72343 | 114 ft | 18 kts | 43° |
| 2026-05-07 23:22 | 45.47543 | -73.72218 | 114 ft | 19 kts | 43° |
| 2026-05-07 23:22 | 45.47646 | -73.72081 | 115 ft | 21 kts | 43° |
| 2026-05-07 23:22 | 45.47745 | -73.71952 | 114 ft | 14 kts | 43° |
| 2026-05-07 23:23 | 45.47820 | -73.71853 | 112 ft | 13 kts | 42° |
| 2026-05-07 23:23 | 45.47829 | -73.71757 | 115 ft | 12 kts | 131° |
| 2026-05-07 23:23 | 45.47776 | -73.71710 | 115 ft | 1 kts | 151° |
| 2026-05-07 23:23 | 45.47759 | -73.71697 | 111 ft | 5 kts | 151° |
| 2026-05-07 23:24 | 45.47747 | -73.71688 | 112 ft | 0 kts | 150° |
| 2026-05-07 23:24 | 45.47746 | -73.71687 | 113 ft | 1 kts | 150° |
| 2026-05-07 23:24 | 45.47721 | -73.71667 | 112 ft | 9 kts | 150° |
| 2026-05-07 23:24 | 45.47658 | -73.71665 | 112 ft | 10 kts | 215° |
| 2026-05-07 23:25 | 45.47630 | -73.71700 | 114 ft | 0 kts | 224° |
| 2026-05-07 23:27 | 45.47410 | -73.71991 | 114 ft | 82 kts | 223° |
| 2026-05-07 23:27 | 45.46807 | -73.72782 | 113 ft | 150 kts | 224° |
| 2026-05-07 23:27 | 45.45970 | -73.74021 | 352 ft | 186 kts | 229° |
| 2026-05-07 23:28 | 45.45062 | -73.75343 | 1259 ft | 183 kts | 227° |
| 2026-05-07 23:28 | 45.44187 | -73.76601 | 2280 ft | 179 kts | 228° |
| 2026-05-07 23:28 | 45.43292 | -73.77902 | 2822 ft | 192 kts | 230° |
| 2026-05-07 23:28 | 45.42278 | -73.79321 | 3014 ft | 218 kts | 219° |
| 2026-05-07 23:29 | 45.40875 | -73.80368 | 3363 ft | 237 kts | 208° |
| 2026-05-07 23:29 | 45.39343 | -73.81388 | 3745 ft | 252 kts | 208° |
| 2026-05-07 23:29 | 45.37737 | -73.82467 | 4499 ft | 257 kts | 208° |
| 2026-05-07 23:29 | 45.36113 | -73.83567 | 5329 ft | 259 kts | 209° |
| 2026-05-07 23:30 | 45.34482 | -73.84681 | 6177 ft | 261 kts | 209° |
| 2026-05-07 23:30 | 45.32842 | -73.85808 | 6994 ft | 262 kts | 210° |
| 2026-05-07 23:30 | 45.31208 | -73.86934 | 7866 ft | 260 kts | 210° |
| 2026-05-07 23:30 | 45.29576 | -73.88062 | 8735 ft | 260 kts | 210° |
| 2026-05-07 23:31 | 45.27947 | -73.89191 | 9572 ft | 261 kts | 210° |
| 2026-05-07 23:31 | 45.26310 | -73.90326 | 10313 ft | 264 kts | 211° |
| 2026-05-07 23:31 | 45.24608 | -73.91512 | 10589 ft | 284 kts | 211° |
| 2026-05-07 23:31 | 45.22758 | -73.92803 | 10773 ft | 307 kts | 210° |
| 2026-05-07 23:32 | 45.20798 | -73.94168 | 10945 ft | 328 kts | 210° |
| 2026-05-07 23:32 | 45.18682 | -73.95637 | 11099 ft | 348 kts | 210° |
| 2026-05-07 23:32 | 45.16454 | -73.97179 | 11326 ft | 363 kts | 210° |
| 2026-05-07 23:32 | 45.14159 | -73.98763 | 11839 ft | 369 kts | 210° |
| 2026-05-07 23:33 | 45.11835 | -74.00362 | 12496 ft | 372 kts | 210° |
| 2026-05-07 23:33 | 45.09496 | -74.01974 | 13175 ft | 373 kts | 210° |
| 2026-05-07 23:33 | 45.07182 | -74.03570 | 13802 ft | 376 kts | 210° |
| 2026-05-07 23:33 | 45.04822 | -74.05197 | 14355 ft | 378 kts | 210° |
| 2026-05-07 23:34 | 45.02447 | -74.06833 | 14924 ft | 380 kts | 210° |
| 2026-05-07 23:34 | 45.00029 | -74.08378 | 15502 ft | 385 kts | 204° |
| 2026-05-07 23:34 | 44.97429 | -74.09433 | 16043 ft | 392 kts | 195° |
| 2026-05-07 23:34 | 44.94711 | -74.09968 | 16614 ft | 396 kts | 192° |
| 2026-05-07 23:35 | 44.91960 | -74.10450 | 17142 ft | 399 kts | 192° |
| 2026-05-07 23:35 | 44.89194 | -74.10941 | 17660 ft | 401 kts | 192° |
| 2026-05-07 23:35 | 44.86417 | -74.11447 | 18182 ft | 403 kts | 192° |
| 2026-05-07 23:35 | 44.83657 | -74.11960 | 18627 ft | 405 kts | 192° |
| 2026-05-07 23:36 | 44.80840 | -74.12491 | 19062 ft | 408 kts | 192° |
| 2026-05-07 23:36 | 44.78017 | -74.13024 | 19504 ft | 410 kts | 192° |
| 2026-05-07 23:36 | 44.75178 | -74.13559 | 19933 ft | 413 kts | 192° |
| 2026-05-07 23:36 | 44.72305 | -74.13950 | 20382 ft | 419 kts | 187° |
| 2026-05-07 23:37 | 44.69362 | -74.13736 | 20783 ft | 427 kts | 179° |
| 2026-05-07 23:37 | 44.68407 | -74.13568 | 20922 ft | 428 kts | 178° |
| 2026-05-07 23:37 | 44.66150 | -74.13160 | 21245 ft | 430 kts | 178° |
| 2026-05-07 23:37 | 44.63175 | -74.12615 | 21662 ft | 432 kts | 178° |
| 2026-05-07 23:38 | 44.60181 | -74.12073 | 22060 ft | 435 kts | 179° |
| 2026-05-07 23:38 | 44.57215 | -74.11545 | 22459 ft | 437 kts | 179° |
| 2026-05-07 23:38 | 44.54192 | -74.11016 | 22851 ft | 438 kts | 179° |
| 2026-05-07 23:38 | 44.51155 | -74.10491 | 23273 ft | 440 kts | 179° |
| 2026-05-07 23:39 | 44.48102 | -74.09969 | 23613 ft | 442 kts | 179° |
| 2026-05-07 23:39 | 44.45035 | -74.09447 | 23946 ft | 444 kts | 179° |
| 2026-05-07 23:39 | 44.41968 | -74.08926 | 24281 ft | 445 kts | 179° |
| 2026-05-07 23:39 | 44.38888 | -74.08403 | 24610 ft | 447 kts | 180° |
| 2026-05-07 23:40 | 44.35798 | -74.07880 | 24913 ft | 448 kts | 180° |
| 2026-05-07 23:40 | 44.32692 | -74.07355 | 25244 ft | 450 kts | 180° |
| 2026-05-07 23:40 | 44.29606 | -74.06833 | 25552 ft | 451 kts | 180° |
| 2026-05-07 23:40 | 44.26483 | -74.06304 | 25902 ft | 452 kts | 180° |
| 2026-05-07 23:41 | 44.23371 | -74.05776 | 26363 ft | 449 kts | 180° |
| 2026-05-07 23:41 | 44.20268 | -74.05250 | 26823 ft | 447 kts | 180° |
| 2026-05-07 23:41 | 44.17187 | -74.04729 | 27268 ft | 446 kts | 181° |
| 2026-05-07 23:41 | 44.14105 | -74.04210 | 27720 ft | 445 kts | 181° |
| 2026-05-07 23:42 | 44.11033 | -74.03693 | 28204 ft | 443 kts | 181° |
| 2026-05-07 23:42 | 44.07977 | -74.03179 | 28699 ft | 442 kts | 181° |
| 2026-05-07 23:42 | 44.04968 | -74.02674 | 29166 ft | 440 kts | 182° |
| 2026-05-07 23:42 | 44.01891 | -74.02158 | 29642 ft | 439 kts | 182° |
| 2026-05-07 23:43 | 43.98900 | -74.01657 | 30072 ft | 437 kts | 182° |
| 2026-05-07 23:43 | 43.95882 | -74.01153 | 30410 ft | 437 kts | 182° |
| 2026-05-07 23:43 | 43.92854 | -74.00648 | 30689 ft | 437 kts | 182° |
| 2026-05-07 23:43 | 43.89825 | -74.00145 | 30940 ft | 439 kts | 182° |
| 2026-05-07 23:44 | 43.86791 | -73.99640 | 31264 ft | 438 kts | 182° |
| 2026-05-07 23:44 | 43.83801 | -73.99141 | 31576 ft | 437 kts | 182° |
| 2026-05-07 23:44 | 43.80783 | -73.98638 | 31864 ft | 437 kts | 182° |
| 2026-05-07 23:45 | 43.77711 | -73.98129 | 32136 ft | 438 kts | 182° |
| 2026-05-07 23:45 | 43.74681 | -73.97626 | 32416 ft | 438 kts | 183° |
| 2026-05-07 23:45 | 43.71662 | -73.97124 | 32709 ft | 437 kts | 183° |
| 2026-05-07 23:45 | 43.68633 | -73.96622 | 32977 ft | 437 kts | 183° |
| 2026-05-07 23:46 | 43.65604 | -73.96121 | 33187 ft | 438 kts | 183° |
| 2026-05-07 23:46 | 43.62612 | -73.95627 | 33445 ft | 438 kts | 183° |
| 2026-05-07 23:46 | 43.59591 | -73.95127 | 33743 ft | 437 kts | 183° |
| 2026-05-07 23:46 | 43.56568 | -73.94627 | 33968 ft | 437 kts | 183° |
| 2026-05-07 23:47 | 43.53528 | -73.94127 | 34072 ft | 439 kts | 183° |
| 2026-05-07 23:47 | 43.50491 | -73.93627 | 34293 ft | 438 kts | 183° |
| 2026-05-07 23:47 | 43.47506 | -73.93134 | 34525 ft | 437 kts | 183° |
| 2026-05-07 23:47 | 43.44487 | -73.92637 | 34700 ft | 438 kts | 183° |
| 2026-05-07 23:48 | 43.41457 | -73.92141 | 34854 ft | 439 kts | 184° |
| 2026-05-07 23:48 | 43.38418 | -73.91643 | 34993 ft | 439 kts | 184° |
| 2026-05-07 23:48 | 43.35387 | -73.91146 | 35208 ft | 439 kts | 184° |
| 2026-05-07 23:48 | 43.33375 | -73.90816 | 35325 ft | 439 kts | 184° |
| 2026-05-07 23:49 | 43.30344 | -73.90320 | 35485 ft | 439 kts | 184° |
| 2026-05-07 23:49 | 43.27302 | -73.89823 | 35637 ft | 439 kts | 184° |
| 2026-05-07 23:49 | 43.23268 | -73.89165 | 35827 ft | 439 kts | 184° |
| 2026-05-07 23:49 | 43.21216 | -73.88830 | 35843 ft | 439 kts | 184° |
| 2026-05-07 23:50 | 43.15174 | -73.87845 | 35854 ft | 440 kts | 184° |
| 2026-05-07 23:50 | 43.09097 | -73.86857 | 35867 ft | 440 kts | 184° |
| 2026-05-07 23:51 | 43.03009 | -73.85869 | 35872 ft | 440 kts | 184° |
| 2026-05-07 23:51 | 42.96925 | -73.84884 | 35876 ft | 441 kts | 184° |
| 2026-05-07 23:52 | 42.92854 | -73.84225 | 35869 ft | 440 kts | 184° |
| 2026-05-07 23:52 | 42.87891 | -73.83424 | 35877 ft | 440 kts | 184° |
| 2026-05-07 23:53 | 42.81849 | -73.82450 | 35858 ft | 440 kts | 184° |
| 2026-05-07 23:53 | 42.75762 | -73.81471 | 35863 ft | 439 kts | 185° |
| 2026-05-07 23:54 | 42.69752 | -73.81138 | 35876 ft | 428 kts | 191° |
| 2026-05-07 23:54 | 42.63790 | -73.81217 | 35882 ft | 428 kts | 191° |
| 2026-05-07 23:55 | 42.57866 | -73.81290 | 35875 ft | 429 kts | 191° |
| 2026-05-07 23:55 | 42.51884 | -73.81319 | 35888 ft | 429 kts | 191° |
| 2026-05-07 23:56 | 42.45890 | -73.81328 | 35865 ft | 430 kts | 191° |
| 2026-05-07 23:56 | 42.39901 | -73.81330 | 35873 ft | 430 kts | 191° |
| 2026-05-07 23:57 | 42.33955 | -73.81334 | 35868 ft | 430 kts | 191° |
| 2026-05-07 23:57 | 42.27960 | -73.81338 | 35867 ft | 430 kts | 191° |
| 2026-05-07 23:58 | 42.21967 | -73.81343 | 35854 ft | 430 kts | 191° |
| 2026-05-07 23:58 | 42.15978 | -73.81348 | 35862 ft | 430 kts | 191° |
| 2026-05-07 23:59 | 42.10022 | -73.81353 | 35853 ft | 430 kts | 191° |
| 2026-05-07 23:59 | 42.06008 | -73.81356 | 35845 ft | 430 kts | 191° |
| 2026-05-08 00:00 | 42.00838 | -73.81360 | 35849 ft | 430 kts | 192° |
| 2026-05-08 00:00 | 41.94851 | -73.81365 | 35850 ft | 431 kts | 192° |
| 2026-05-08 00:01 | 41.89871 | -73.81369 | 35842 ft | 431 kts | 192° |